sensor_id;sensor_type;location;lat;lon;timestamp;P1;durP1;ratioP1;P2;durP2;ratioP2
21507;SDS011;10915;54.352;9.074;2023-05-10T00:01:07;6.77;;;2.50;;
21507;SDS011;10915;54.352;9.074;2023-05-10T00:03:32;4.63;;;2.80;;
21507;SDS011;10915;54.352;9.074;2023-05-10T00:05:58;5.03;;;2.30;;
21507;SDS011;10915;54.352;9.074;2023-05-10T00:08:23;5.70;;;2.60;;
21507;SDS011;10915;54.352;9.074;2023-05-10T00:10:49;5.00;;;2.20;;
21507;SDS011;10915;54.352;9.074;2023-05-10T00:13:15;4.83;;;2.60;;
21507;SDS011;10915;54.352;9.074;2023-05-10T00:15:41;8.87;;;2.70;;
21507;SDS011;10915;54.352;9.074;2023-05-10T00:18:06;3.50;;;2.13;;
21507;SDS011;10915;54.352;9.074;2023-05-10T00:20:32;3.33;;;2.50;;
21507;SDS011;10915;54.352;9.074;2023-05-10T00:22:58;6.33;;;2.90;;
21507;SDS011;10915;54.352;9.074;2023-05-10T00:25:24;5.57;;;3.17;;
21507;SDS011;10915;54.352;9.074;2023-05-10T00:27:49;8.17;;;2.80;;
21507;SDS011;10915;54.352;9.074;2023-05-10T00:30:15;5.10;;;2.50;;
21507;SDS011;10915;54.352;9.074;2023-05-10T00:32:41;4.47;;;2.90;;
21507;SDS011;10915;54.352;9.074;2023-05-10T00:35:07;5.83;;;2.50;;
21507;SDS011;10915;54.352;9.074;2023-05-10T00:37:33;5.83;;;2.87;;
21507;SDS011;10915;54.352;9.074;2023-05-10T00:39:58;4.73;;;3.03;;
21507;SDS011;10915;54.352;9.074;2023-05-10T00:42:24;6.00;;;2.93;;
21507;SDS011;10915;54.352;9.074;2023-05-10T00:44:49;8.47;;;3.10;;
21507;SDS011;10915;54.352;9.074;2023-05-10T00:47:15;3.53;;;2.57;;
21507;SDS011;10915;54.352;9.074;2023-05-10T00:49:41;6.40;;;3.13;;
21507;SDS011;10915;54.352;9.074;2023-05-10T00:52:08;8.47;;;2.83;;
21507;SDS011;10915;54.352;9.074;2023-05-10T00:54:34;8.40;;;3.40;;
21507;SDS011;10915;54.352;9.074;2023-05-10T00:57:00;7.33;;;3.37;;
21507;SDS011;10915;54.352;9.074;2023-05-10T00:59:26;5.33;;;2.97;;
21507;SDS011;10915;54.352;9.074;2023-05-10T01:01:51;6.43;;;3.37;;
21507;SDS011;10915;54.352;9.074;2023-05-10T01:04:18;4.87;;;2.80;;
21507;SDS011;10915;54.352;9.074;2023-05-10T01:06:46;7.63;;;3.07;;
21507;SDS011;10915;54.352;9.074;2023-05-10T01:09:12;7.53;;;3.30;;
21507;SDS011;10915;54.352;9.074;2023-05-10T01:11:38;5.70;;;3.27;;
21507;SDS011;10915;54.352;9.074;2023-05-10T01:14:04;4.80;;;3.20;;
21507;SDS011;10915;54.352;9.074;2023-05-10T01:16:32;6.97;;;3.90;;
21507;SDS011;10915;54.352;9.074;2023-05-10T01:19:01;7.63;;;3.30;;
21507;SDS011;10915;54.352;9.074;2023-05-10T01:21:35;6.37;;;3.30;;
21507;SDS011;10915;54.352;9.074;2023-05-10T01:32:36;5.80;;;3.20;;
21507;SDS011;10915;54.352;9.074;2023-05-10T01:37:49;8.20;;;3.40;;
21507;SDS011;10915;54.352;9.074;2023-05-10T01:46:37;6.70;;;3.30;;
21507;SDS011;10915;54.352;9.074;2023-05-10T01:52:14;5.27;;;3.53;;
21507;SDS011;10915;54.352;9.074;2023-05-10T01:55:06;8.53;;;3.30;;
21507;SDS011;10915;54.352;9.074;2023-05-10T01:57:32;5.20;;;3.67;;
21507;SDS011;10915;54.352;9.074;2023-05-10T02:00:01;5.87;;;3.53;;
21507;SDS011;10915;54.352;9.074;2023-05-10T02:02:33;6.03;;;3.90;;
21507;SDS011;10915;54.352;9.074;2023-05-10T02:05:02;7.90;;;3.90;;
21507;SDS011;10915;54.352;9.074;2023-05-10T02:07:30;6.07;;;3.80;;
21507;SDS011;10915;54.352;9.074;2023-05-10T02:09:59;7.40;;;4.10;;
21507;SDS011;10915;54.352;9.074;2023-05-10T02:12:26;9.13;;;4.00;;
21507;SDS011;10915;54.352;9.074;2023-05-10T02:14:53;7.53;;;3.97;;
21507;SDS011;10915;54.352;9.074;2023-05-10T02:17:20;6.47;;;4.57;;
21507;SDS011;10915;54.352;9.074;2023-05-10T02:19:47;7.50;;;3.80;;
21507;SDS011;10915;54.352;9.074;2023-05-10T02:22:14;6.00;;;3.80;;
21507;SDS011;10915;54.352;9.074;2023-05-10T02:24:41;6.50;;;4.17;;
21507;SDS011;10915;54.352;9.074;2023-05-10T02:27:09;6.40;;;4.60;;
21507;SDS011;10915;54.352;9.074;2023-05-10T02:29:36;7.60;;;4.07;;
21507;SDS011;10915;54.352;9.074;2023-05-10T02:32:03;7.33;;;4.07;;
21507;SDS011;10915;54.352;9.074;2023-05-10T02:34:29;7.63;;;4.10;;
21507;SDS011;10915;54.352;9.074;2023-05-10T02:36:55;7.47;;;4.20;;
21507;SDS011;10915;54.352;9.074;2023-05-10T02:39:21;8.10;;;4.07;;
21507;SDS011;10915;54.352;9.074;2023-05-10T02:41:48;7.83;;;4.43;;
21507;SDS011;10915;54.352;9.074;2023-05-10T02:44:17;6.60;;;4.37;;
21507;SDS011;10915;54.352;9.074;2023-05-10T02:46:44;7.97;;;4.23;;
21507;SDS011;10915;54.352;9.074;2023-05-10T02:49:10;5.83;;;4.10;;
21507;SDS011;10915;54.352;9.074;2023-05-10T02:51:37;7.80;;;4.43;;
21507;SDS011;10915;54.352;9.074;2023-05-10T02:54:07;6.93;;;4.47;;
21507;SDS011;10915;54.352;9.074;2023-05-10T02:56:42;7.13;;;4.90;;
21507;SDS011;10915;54.352;9.074;2023-05-10T02:59:11;9.03;;;5.03;;
21507;SDS011;10915;54.352;9.074;2023-05-10T03:01:37;6.60;;;4.30;;
21507;SDS011;10915;54.352;9.074;2023-05-10T03:04:03;8.07;;;4.73;;
21507;SDS011;10915;54.352;9.074;2023-05-10T03:06:29;7.47;;;4.67;;
21507;SDS011;10915;54.352;9.074;2023-05-10T03:08:55;5.83;;;4.50;;
21507;SDS011;10915;54.352;9.074;2023-05-10T03:17:10;6.63;;;4.93;;
21507;SDS011;10915;54.352;9.074;2023-05-10T03:19:39;8.00;;;5.27;;
21507;SDS011;10915;54.352;9.074;2023-05-10T03:22:18;8.70;;;4.77;;
21507;SDS011;10915;54.352;9.074;2023-05-10T03:24:59;5.97;;;4.43;;
21507;SDS011;10915;54.352;9.074;2023-05-10T03:27:31;7.60;;;5.17;;
21507;SDS011;10915;54.352;9.074;2023-05-10T03:29:58;5.87;;;4.60;;
21507;SDS011;10915;54.352;9.074;2023-05-10T03:32:24;7.13;;;4.50;;
21507;SDS011;10915;54.352;9.074;2023-05-10T03:34:52;8.00;;;4.53;;
21507;SDS011;10915;54.352;9.074;2023-05-10T03:37:17;5.67;;;4.63;;
21507;SDS011;10915;54.352;9.074;2023-05-10T03:39:43;8.43;;;4.80;;
21507;SDS011;10915;54.352;9.074;2023-05-10T03:42:08;7.37;;;5.20;;
21507;SDS011;10915;54.352;9.074;2023-05-10T03:44:36;7.10;;;4.83;;
21507;SDS011;10915;54.352;9.074;2023-05-10T03:47:03;8.27;;;5.00;;
21507;SDS011;10915;54.352;9.074;2023-05-10T03:49:29;7.23;;;4.77;;
21507;SDS011;10915;54.352;9.074;2023-05-10T03:51:54;7.03;;;4.60;;
21507;SDS011;10915;54.352;9.074;2023-05-10T03:54:20;8.63;;;5.00;;
21507;SDS011;10915;54.352;9.074;2023-05-10T03:56:46;6.70;;;4.73;;
21507;SDS011;10915;54.352;9.074;2023-05-10T03:59:13;8.30;;;5.43;;
21507;SDS011;10915;54.352;9.074;2023-05-10T04:01:38;9.77;;;5.43;;
21507;SDS011;10915;54.352;9.074;2023-05-10T04:04:04;8.77;;;5.10;;
21507;SDS011;10915;54.352;9.074;2023-05-10T04:06:30;9.07;;;5.33;;
21507;SDS011;10915;54.352;9.074;2023-05-10T04:08:55;11.70;;;5.03;;
21507;SDS011;10915;54.352;9.074;2023-05-10T04:11:24;10.33;;;5.40;;
21507;SDS011;10915;54.352;9.074;2023-05-10T04:13:50;7.70;;;5.27;;
21507;SDS011;10915;54.352;9.074;2023-05-10T04:16:16;7.77;;;5.17;;
21507;SDS011;10915;54.352;9.074;2023-05-10T04:18:41;7.90;;;4.97;;
21507;SDS011;10915;54.352;9.074;2023-05-10T04:21:13;8.87;;;4.80;;
21507;SDS011;10915;54.352;9.074;2023-05-10T04:23:39;13.37;;;4.80;;
21507;SDS011;10915;54.352;9.074;2023-05-10T04:26:05;9.00;;;5.53;;
21507;SDS011;10915;54.352;9.074;2023-05-10T04:28:31;8.00;;;4.20;;
21507;SDS011;10915;54.352;9.074;2023-05-10T04:31:00;7.27;;;4.90;;
21507;SDS011;10915;54.352;9.074;2023-05-10T04:33:30;9.53;;;4.93;;
21507;SDS011;10915;54.352;9.074;2023-05-10T04:35:56;10.57;;;4.97;;
21507;SDS011;10915;54.352;9.074;2023-05-10T04:38:22;7.03;;;4.30;;
21507;SDS011;10915;54.352;9.074;2023-05-10T04:40:47;6.17;;;4.50;;
21507;SDS011;10915;54.352;9.074;2023-05-10T04:43:13;7.73;;;4.83;;
21507;SDS011;10915;54.352;9.074;2023-05-10T04:45:39;9.93;;;5.07;;
21507;SDS011;10915;54.352;9.074;2023-05-10T04:48:04;6.37;;;4.10;;
21507;SDS011;10915;54.352;9.074;2023-05-10T04:50:30;8.13;;;4.60;;
21507;SDS011;10915;54.352;9.074;2023-05-10T04:52:56;8.07;;;4.70;;
21507;SDS011;10915;54.352;9.074;2023-05-10T04:55:22;6.77;;;4.30;;
21507;SDS011;10915;54.352;9.074;2023-05-10T04:57:48;8.90;;;5.10;;
21507;SDS011;10915;54.352;9.074;2023-05-10T05:00:13;7.07;;;4.80;;
21507;SDS011;10915;54.352;9.074;2023-05-10T05:02:42;7.63;;;4.33;;
21507;SDS011;10915;54.352;9.074;2023-05-10T05:05:09;9.20;;;3.80;;
21507;SDS011;10915;54.352;9.074;2023-05-10T05:07:34;6.43;;;4.43;;
21507;SDS011;10915;54.352;9.074;2023-05-10T05:10:00;9.20;;;4.70;;
21507;SDS011;10915;54.352;9.074;2023-05-10T05:12:25;11.10;;;4.77;;
21507;SDS011;10915;54.352;9.074;2023-05-10T05:14:51;6.73;;;4.80;;
21507;SDS011;10915;54.352;9.074;2023-05-10T05:17:16;7.17;;;4.67;;
21507;SDS011;10915;54.352;9.074;2023-05-10T05:19:42;8.07;;;4.40;;
21507;SDS011;10915;54.352;9.074;2023-05-10T05:22:08;7.20;;;4.77;;
21507;SDS011;10915;54.352;9.074;2023-05-10T05:24:36;8.70;;;5.20;;
21507;SDS011;10915;54.352;9.074;2023-05-10T05:27:06;9.90;;;5.03;;
21507;SDS011;10915;54.352;9.074;2023-05-10T05:29:31;6.40;;;4.57;;
21507;SDS011;10915;54.352;9.074;2023-05-10T05:31:57;7.73;;;4.70;;
21507;SDS011;10915;54.352;9.074;2023-05-10T05:34:23;9.57;;;4.20;;
21507;SDS011;10915;54.352;9.074;2023-05-10T05:36:49;9.67;;;4.90;;
21507;SDS011;10915;54.352;9.074;2023-05-10T05:39:15;8.63;;;4.83;;
21507;SDS011;10915;54.352;9.074;2023-05-10T05:41:41;6.37;;;4.77;;
21507;SDS011;10915;54.352;9.074;2023-05-10T05:44:07;7.13;;;4.70;;
21507;SDS011;10915;54.352;9.074;2023-05-10T05:46:33;8.57;;;5.03;;
21507;SDS011;10915;54.352;9.074;2023-05-10T05:48:58;13.60;;;4.90;;
21507;SDS011;10915;54.352;9.074;2023-05-10T05:51:24;5.67;;;4.47;;
21507;SDS011;10915;54.352;9.074;2023-05-10T05:53:50;6.13;;;4.77;;
21507;SDS011;10915;54.352;9.074;2023-05-10T05:56:15;8.13;;;4.40;;
21507;SDS011;10915;54.352;9.074;2023-05-10T05:58:42;7.00;;;4.73;;
21507;SDS011;10915;54.352;9.074;2023-05-10T06:01:08;6.93;;;4.60;;
21507;SDS011;10915;54.352;9.074;2023-05-10T06:03:34;7.57;;;4.57;;
21507;SDS011;10915;54.352;9.074;2023-05-10T06:05:59;7.93;;;4.17;;
21507;SDS011;10915;54.352;9.074;2023-05-10T06:08:25;6.63;;;3.93;;
21507;SDS011;10915;54.352;9.074;2023-05-10T06:10:51;10.57;;;4.13;;
21507;SDS011;10915;54.352;9.074;2023-05-10T06:13:16;5.43;;;3.90;;
21507;SDS011;10915;54.352;9.074;2023-05-10T06:15:42;6.23;;;4.30;;
21507;SDS011;10915;54.352;9.074;2023-05-10T06:18:08;7.57;;;4.20;;
21507;SDS011;10915;54.352;9.074;2023-05-10T06:20:33;11.87;;;4.40;;
21507;SDS011;10915;54.352;9.074;2023-05-10T06:22:59;8.33;;;4.20;;
21507;SDS011;10915;54.352;9.074;2023-05-10T06:25:25;6.27;;;3.77;;
21507;SDS011;10915;54.352;9.074;2023-05-10T06:27:51;6.40;;;4.23;;
21507;SDS011;10915;54.352;9.074;2023-05-10T06:30:21;7.53;;;4.17;;
21507;SDS011;10915;54.352;9.074;2023-05-10T06:32:52;5.77;;;3.97;;
21507;SDS011;10915;54.352;9.074;2023-05-10T06:35:18;7.67;;;4.00;;
21507;SDS011;10915;54.352;9.074;2023-05-10T06:37:44;8.07;;;4.50;;
21507;SDS011;10915;54.352;9.074;2023-05-10T06:40:09;7.27;;;4.23;;
21507;SDS011;10915;54.352;9.074;2023-05-10T06:42:35;6.23;;;4.10;;
21507;SDS011;10915;54.352;9.074;2023-05-10T06:45:01;6.57;;;3.60;;
21507;SDS011;10915;54.352;9.074;2023-05-10T06:47:27;6.47;;;4.30;;
21507;SDS011;10915;54.352;9.074;2023-05-10T06:49:53;5.73;;;3.80;;
21507;SDS011;10915;54.352;9.074;2023-05-10T06:52:19;8.17;;;4.00;;
21507;SDS011;10915;54.352;9.074;2023-05-10T06:54:44;5.57;;;3.77;;
21507;SDS011;10915;54.352;9.074;2023-05-10T06:57:10;9.03;;;4.13;;
21507;SDS011;10915;54.352;9.074;2023-05-10T06:59:36;6.33;;;3.90;;
21507;SDS011;10915;54.352;9.074;2023-05-10T07:02:15;6.90;;;3.80;;
21507;SDS011;10915;54.352;9.074;2023-05-10T07:04:50;7.77;;;4.30;;
21507;SDS011;10915;54.352;9.074;2023-05-10T07:07:16;5.97;;;3.80;;
21507;SDS011;10915;54.352;9.074;2023-05-10T07:09:43;7.57;;;3.97;;
21507;SDS011;10915;54.352;9.074;2023-05-10T07:12:09;8.27;;;4.00;;
21507;SDS011;10915;54.352;9.074;2023-05-10T07:14:35;6.83;;;4.00;;
21507;SDS011;10915;54.352;9.074;2023-05-10T07:17:01;5.60;;;4.00;;
21507;SDS011;10915;54.352;9.074;2023-05-10T07:19:26;6.47;;;4.10;;
21507;SDS011;10915;54.352;9.074;2023-05-10T07:21:52;10.47;;;4.63;;
21507;SDS011;10915;54.352;9.074;2023-05-10T07:24:17;7.23;;;4.13;;
21507;SDS011;10915;54.352;9.074;2023-05-10T07:26:43;9.07;;;4.43;;
21507;SDS011;10915;54.352;9.074;2023-05-10T07:29:09;6.93;;;4.20;;
21507;SDS011;10915;54.352;9.074;2023-05-10T07:31:35;5.97;;;4.17;;
21507;SDS011;10915;54.352;9.074;2023-05-10T07:34:01;8.57;;;4.30;;
21507;SDS011;10915;54.352;9.074;2023-05-10T07:36:27;7.57;;;4.20;;
21507;SDS011;10915;54.352;9.074;2023-05-10T07:39:03;7.90;;;4.27;;
21507;SDS011;10915;54.352;9.074;2023-05-10T07:41:35;7.20;;;4.50;;
21507;SDS011;10915;54.352;9.074;2023-05-10T07:44:02;6.00;;;4.50;;
21507;SDS011;10915;54.352;9.074;2023-05-10T07:46:28;7.33;;;4.03;;
21507;SDS011;10915;54.352;9.074;2023-05-10T07:48:54;6.67;;;4.17;;
21507;SDS011;10915;54.352;9.074;2023-05-10T07:51:20;5.80;;;4.03;;
21507;SDS011;10915;54.352;9.074;2023-05-10T07:53:46;7.27;;;4.80;;
21507;SDS011;10915;54.352;9.074;2023-05-10T07:56:22;5.93;;;3.27;;
21507;SDS011;10915;54.352;9.074;2023-05-10T07:58:54;8.03;;;3.90;;
21507;SDS011;10915;54.352;9.074;2023-05-10T08:01:21;7.67;;;4.50;;
21507;SDS011;10915;54.352;9.074;2023-05-10T08:03:47;7.53;;;4.00;;
21507;SDS011;10915;54.352;9.074;2023-05-10T08:06:14;6.50;;;4.50;;
21507;SDS011;10915;54.352;9.074;2023-05-10T08:08:40;6.03;;;4.23;;
21507;SDS011;10915;54.352;9.074;2023-05-10T08:11:06;8.63;;;4.10;;
21507;SDS011;10915;54.352;9.074;2023-05-10T08:13:32;7.13;;;4.00;;
21507;SDS011;10915;54.352;9.074;2023-05-10T08:15:57;8.83;;;3.77;;
21507;SDS011;10915;54.352;9.074;2023-05-10T08:18:23;5.80;;;4.20;;
21507;SDS011;10915;54.352;9.074;2023-05-10T08:20:49;8.83;;;4.53;;
21507;SDS011;10915;54.352;9.074;2023-05-10T08:23:14;5.30;;;3.90;;
21507;SDS011;10915;54.352;9.074;2023-05-10T08:25:40;6.33;;;4.40;;
21507;SDS011;10915;54.352;9.074;2023-05-10T08:28:06;6.17;;;4.30;;
21507;SDS011;10915;54.352;9.074;2023-05-10T08:30:31;6.90;;;4.30;;
21507;SDS011;10915;54.352;9.074;2023-05-10T08:32:57;8.27;;;4.07;;
21507;SDS011;10915;54.352;9.074;2023-05-10T08:35:23;9.63;;;4.63;;
21507;SDS011;10915;54.352;9.074;2023-05-10T08:37:49;8.30;;;4.13;;
21507;SDS011;10915;54.352;9.074;2023-05-10T08:40:15;9.07;;;4.93;;
21507;SDS011;10915;54.352;9.074;2023-05-10T08:42:45;7.80;;;4.50;;
21507;SDS011;10915;54.352;9.074;2023-05-10T08:45:18;6.93;;;4.23;;
21507;SDS011;10915;54.352;9.074;2023-05-10T08:47:46;8.70;;;4.57;;
21507;SDS011;10915;54.352;9.074;2023-05-10T08:50:12;6.30;;;4.40;;
21507;SDS011;10915;54.352;9.074;2023-05-10T08:52:39;7.53;;;4.67;;
21507;SDS011;10915;54.352;9.074;2023-05-10T08:55:06;8.03;;;4.20;;
21507;SDS011;10915;54.352;9.074;2023-05-10T08:57:32;5.60;;;4.20;;
21507;SDS011;10915;54.352;9.074;2023-05-10T08:59:58;9.03;;;4.60;;
21507;SDS011;10915;54.352;9.074;2023-05-10T09:02:25;7.40;;;4.67;;
21507;SDS011;10915;54.352;9.074;2023-05-10T09:04:51;6.47;;;4.60;;
21507;SDS011;10915;54.352;9.074;2023-05-10T09:07:17;8.07;;;4.30;;
21507;SDS011;10915;54.352;9.074;2023-05-10T09:09:44;8.50;;;4.40;;
21507;SDS011;10915;54.352;9.074;2023-05-10T09:12:12;7.07;;;4.60;;
21507;SDS011;10915;54.352;9.074;2023-05-10T09:14:38;5.70;;;4.27;;
21507;SDS011;10915;54.352;9.074;2023-05-10T09:17:04;6.93;;;4.50;;
21507;SDS011;10915;54.352;9.074;2023-05-10T09:19:30;9.97;;;4.83;;
21507;SDS011;10915;54.352;9.074;2023-05-10T09:21:55;7.30;;;4.57;;
21507;SDS011;10915;54.352;9.074;2023-05-10T09:24:24;6.70;;;4.80;;
21507;SDS011;10915;54.352;9.074;2023-05-10T09:26:51;10.63;;;5.33;;
21507;SDS011;10915;54.352;9.074;2023-05-10T09:29:17;8.30;;;5.33;;
21507;SDS011;10915;54.352;9.074;2023-05-10T09:31:44;7.40;;;5.03;;
21507;SDS011;10915;54.352;9.074;2023-05-10T09:34:19;6.80;;;5.23;;
21507;SDS011;10915;54.352;9.074;2023-05-10T09:36:51;9.63;;;5.03;;
21507;SDS011;10915;54.352;9.074;2023-05-10T09:39:28;6.73;;;4.50;;
21507;SDS011;10915;54.352;9.074;2023-05-10T09:41:56;6.60;;;4.60;;
21507;SDS011;10915;54.352;9.074;2023-05-10T09:44:22;9.17;;;5.03;;
21507;SDS011;10915;54.352;9.074;2023-05-10T09:46:48;7.60;;;5.23;;
21507;SDS011;10915;54.352;9.074;2023-05-10T09:49:15;8.40;;;4.83;;
21507;SDS011;10915;54.352;9.074;2023-05-10T09:51:41;9.13;;;5.87;;
21507;SDS011;10915;54.352;9.074;2023-05-10T09:54:10;8.50;;;5.03;;
21507;SDS011;10915;54.352;9.074;2023-05-10T09:56:38;11.93;;;6.20;;
21507;SDS011;10915;54.352;9.074;2023-05-10T09:59:05;9.07;;;5.80;;
21507;SDS011;10915;54.352;9.074;2023-05-10T10:01:32;7.13;;;5.47;;
21507;SDS011;10915;54.352;9.074;2023-05-10T10:03:59;9.60;;;5.70;;
21507;SDS011;10915;54.352;9.074;2023-05-10T10:06:40;8.80;;;6.70;;
21507;SDS011;10915;54.352;9.074;2023-05-10T10:09:06;12.07;;;6.40;;
21507;SDS011;10915;54.352;9.074;2023-05-10T10:11:34;8.83;;;6.37;;
21507;SDS011;10915;54.352;9.074;2023-05-10T10:14:00;12.50;;;6.93;;
21507;SDS011;10915;54.352;9.074;2023-05-10T10:16:27;9.47;;;6.07;;
21507;SDS011;10915;54.352;9.074;2023-05-10T10:18:55;9.50;;;7.13;;
21507;SDS011;10915;54.352;9.074;2023-05-10T10:21:22;9.90;;;6.80;;
21507;SDS011;10915;54.352;9.074;2023-05-10T10:23:48;7.90;;;6.40;;
21507;SDS011;10915;54.352;9.074;2023-05-10T10:26:14;8.47;;;6.73;;
21507;SDS011;10915;54.352;9.074;2023-05-10T10:28:49;9.20;;;6.87;;
21507;SDS011;10915;54.352;9.074;2023-05-10T10:34:11;10.87;;;7.23;;
21507;SDS011;10915;54.352;9.074;2023-05-10T10:36:53;10.77;;;7.97;;
21507;SDS011;10915;54.352;9.074;2023-05-10T10:39:20;10.13;;;7.90;;
21507;SDS011;10915;54.352;9.074;2023-05-10T10:47:06;10.10;;;7.63;;
21507;SDS011;10915;54.352;9.074;2023-05-10T10:52:27;12.00;;;8.67;;
21507;SDS011;10915;54.352;9.074;2023-05-10T10:57:31;13.23;;;8.40;;
21507;SDS011;10915;54.352;9.074;2023-05-10T11:02:56;10.47;;;8.40;;
21507;SDS011;10915;54.352;9.074;2023-05-10T11:05:39;12.63;;;9.07;;
21507;SDS011;10915;54.352;9.074;2023-05-10T11:08:07;12.53;;;9.80;;
21507;SDS011;10915;54.352;9.074;2023-05-10T11:10:34;10.73;;;8.47;;
21507;SDS011;10915;54.352;9.074;2023-05-10T11:13:04;9.93;;;8.70;;
21507;SDS011;10915;54.352;9.074;2023-05-10T11:15:34;11.43;;;9.57;;
21507;SDS011;10915;54.352;9.074;2023-05-10T11:20:52;11.80;;;8.90;;
21507;SDS011;10915;54.352;9.074;2023-05-10T11:23:22;10.57;;;9.33;;
21507;SDS011;10915;54.352;9.074;2023-05-10T11:25:48;10.87;;;9.17;;
21507;SDS011;10915;54.352;9.074;2023-05-10T11:28:16;12.57;;;9.00;;
21507;SDS011;10915;54.352;9.074;2023-05-10T11:30:43;11.73;;;9.63;;
21507;SDS011;10915;54.352;9.074;2023-05-10T11:33:14;11.87;;;9.57;;
21507;SDS011;10915;54.352;9.074;2023-05-10T11:35:44;12.17;;;10.23;;
21507;SDS011;10915;54.352;9.074;2023-05-10T11:38:11;13.30;;;9.77;;
21507;SDS011;10915;54.352;9.074;2023-05-10T11:40:38;11.30;;;9.47;;
21507;SDS011;10915;54.352;9.074;2023-05-10T11:43:04;12.57;;;10.07;;
21507;SDS011;10915;54.352;9.074;2023-05-10T11:45:34;11.57;;;10.17;;
21507;SDS011;10915;54.352;9.074;2023-05-10T11:48:00;12.13;;;9.83;;
21507;SDS011;10915;54.352;9.074;2023-05-10T11:50:26;16.70;;;10.80;;
21507;SDS011;10915;54.352;9.074;2023-05-10T11:52:53;12.40;;;9.80;;
21507;SDS011;10915;54.352;9.074;2023-05-10T11:55:19;14.00;;;9.80;;
21507;SDS011;10915;54.352;9.074;2023-05-10T11:57:45;13.47;;;10.03;;
21507;SDS011;10915;54.352;9.074;2023-05-10T12:00:12;12.30;;;10.53;;
21507;SDS011;10915;54.352;9.074;2023-05-10T12:02:38;12.03;;;10.30;;
21507;SDS011;10915;54.352;9.074;2023-05-10T12:05:04;11.53;;;10.33;;
21507;SDS011;10915;54.352;9.074;2023-05-10T12:07:31;12.20;;;10.37;;
21507;SDS011;10915;54.352;9.074;2023-05-10T12:10:06;12.23;;;10.93;;
21507;SDS011;10915;54.352;9.074;2023-05-10T12:12:42;11.03;;;9.93;;
21507;SDS011;10915;54.352;9.074;2023-05-10T12:15:16;12.00;;;10.33;;
21507;SDS011;10915;54.352;9.074;2023-05-10T12:17:43;16.70;;;11.17;;
21507;SDS011;10915;54.352;9.074;2023-05-10T12:20:27;13.37;;;10.37;;
21507;SDS011;10915;54.352;9.074;2023-05-10T12:22:54;14.13;;;11.93;;
21507;SDS011;10915;54.352;9.074;2023-05-10T12:25:22;13.13;;;10.90;;
21507;SDS011;10915;54.352;9.074;2023-05-10T12:30:22;12.70;;;10.60;;
21507;SDS011;10915;54.352;9.074;2023-05-10T12:32:52;14.97;;;11.93;;
21507;SDS011;10915;54.352;9.074;2023-05-10T12:35:18;12.83;;;10.57;;
21507;SDS011;10915;54.352;9.074;2023-05-10T12:37:47;14.17;;;11.33;;
21507;SDS011;10915;54.352;9.074;2023-05-10T12:40:13;11.67;;;10.47;;
21507;SDS011;10915;54.352;9.074;2023-05-10T12:42:39;13.60;;;11.47;;
21507;SDS011;10915;54.352;9.074;2023-05-10T12:45:05;14.50;;;12.50;;
21507;SDS011;10915;54.352;9.074;2023-05-10T12:47:32;12.60;;;11.27;;
21507;SDS011;10915;54.352;9.074;2023-05-10T12:49:58;15.83;;;12.00;;
21507;SDS011;10915;54.352;9.074;2023-05-10T12:52:25;12.27;;;10.87;;
21507;SDS011;10915;54.352;9.074;2023-05-10T12:54:51;12.83;;;11.33;;
21507;SDS011;10915;54.352;9.074;2023-05-10T12:57:17;11.70;;;9.80;;
21507;SDS011;10915;54.352;9.074;2023-05-10T12:59:45;11.03;;;9.67;;
21507;SDS011;10915;54.352;9.074;2023-05-10T13:02:11;11.17;;;9.97;;
21507;SDS011;10915;54.352;9.074;2023-05-10T13:04:36;10.87;;;9.77;;
21507;SDS011;10915;54.352;9.074;2023-05-10T13:07:05;11.47;;;10.37;;
21507;SDS011;10915;54.352;9.074;2023-05-10T13:09:34;11.20;;;10.10;;
21507;SDS011;10915;54.352;9.074;2023-05-10T13:12:00;12.00;;;10.80;;
21507;SDS011;10915;54.352;9.074;2023-05-10T13:14:26;12.20;;;11.00;;
21507;SDS011;10915;54.352;9.074;2023-05-10T13:16:51;12.67;;;11.37;;
21507;SDS011;10915;54.352;9.074;2023-05-10T13:19:17;13.00;;;11.63;;
21507;SDS011;10915;54.352;9.074;2023-05-10T13:21:43;11.43;;;10.33;;
21507;SDS011;10915;54.352;9.074;2023-05-10T13:24:11;11.43;;;10.33;;
21507;SDS011;10915;54.352;9.074;2023-05-10T13:26:39;11.00;;;9.90;;
21507;SDS011;10915;54.352;9.074;2023-05-10T13:29:05;10.80;;;8.67;;
21507;SDS011;10915;54.352;9.074;2023-05-10T13:31:31;8.83;;;7.90;;
21507;SDS011;10915;54.352;9.074;2023-05-10T13:33:56;9.90;;;8.90;;
21507;SDS011;10915;54.352;9.074;2023-05-10T13:36:22;10.97;;;9.40;;
21507;SDS011;10915;54.352;9.074;2023-05-10T13:38:48;10.10;;;9.10;;
21507;SDS011;10915;54.352;9.074;2023-05-10T13:41:13;11.43;;;10.23;;
21507;SDS011;10915;54.352;9.074;2023-05-10T13:43:39;11.93;;;10.73;;
21507;SDS011;10915;54.352;9.074;2023-05-10T13:46:05;12.10;;;10.70;;
21507;SDS011;10915;54.352;9.074;2023-05-10T13:48:30;11.40;;;10.20;;
21507;SDS011;10915;54.352;9.074;2023-05-10T13:50:56;12.17;;;10.97;;
21507;SDS011;10915;54.352;9.074;2023-05-10T13:53:22;10.80;;;9.70;;
21507;SDS011;10915;54.352;9.074;2023-05-10T13:55:48;8.47;;;7.57;;
21507;SDS011;10915;54.352;9.074;2023-05-10T13:58:14;9.50;;;7.53;;
21507;SDS011;10915;54.352;9.074;2023-05-10T14:00:40;10.03;;;8.33;;
21507;SDS011;10915;54.352;9.074;2023-05-10T14:03:05;8.90;;;8.00;;
21507;SDS011;10915;54.352;9.074;2023-05-10T14:05:32;9.57;;;7.87;;
21507;SDS011;10915;54.352;9.074;2023-05-10T14:07:58;8.83;;;7.93;;
21507;SDS011;10915;54.352;9.074;2023-05-10T14:10:23;9.67;;;8.67;;
21507;SDS011;10915;54.352;9.074;2023-05-10T14:12:49;8.07;;;6.77;;
21507;SDS011;10915;54.352;9.074;2023-05-10T14:15:15;6.63;;;5.93;;
21507;SDS011;10915;54.352;9.074;2023-05-10T14:17:41;6.83;;;6.13;;
21507;SDS011;10915;54.352;9.074;2023-05-10T14:20:07;6.00;;;5.40;;
21507;SDS011;10915;54.352;9.074;2023-05-10T14:22:33;6.00;;;5.13;;
21507;SDS011;10915;54.352;9.074;2023-05-10T14:24:59;5.40;;;4.70;;
21507;SDS011;10915;54.352;9.074;2023-05-10T14:27:25;4.57;;;3.97;;
21507;SDS011;10915;54.352;9.074;2023-05-10T14:29:50;4.37;;;3.97;;
21507;SDS011;10915;54.352;9.074;2023-05-10T14:32:16;4.33;;;3.93;;
21507;SDS011;10915;54.352;9.074;2023-05-10T14:34:42;3.33;;;3.03;;
21507;SDS011;10915;54.352;9.074;2023-05-10T14:37:09;3.83;;;2.50;;
21507;SDS011;10915;54.352;9.074;2023-05-10T14:39:36;2.67;;;2.47;;
21507;SDS011;10915;54.352;9.074;2023-05-10T14:42:02;2.93;;;2.63;;
21507;SDS011;10915;54.352;9.074;2023-05-10T14:44:28;2.80;;;2.60;;
21507;SDS011;10915;54.352;9.074;2023-05-10T14:46:53;3.63;;;2.73;;
21507;SDS011;10915;54.352;9.074;2023-05-10T14:49:20;3.17;;;2.70;;
21507;SDS011;10915;54.352;9.074;2023-05-10T14:51:47;4.53;;;3.40;;
21507;SDS011;10915;54.352;9.074;2023-05-10T14:54:13;3.73;;;3.23;;
21507;SDS011;10915;54.352;9.074;2023-05-10T14:56:39;4.20;;;3.60;;
21507;SDS011;10915;54.352;9.074;2023-05-10T14:59:06;5.03;;;3.97;;
21507;SDS011;10915;54.352;9.074;2023-05-10T15:01:32;4.67;;;3.73;;
21507;SDS011;10915;54.352;9.074;2023-05-10T15:03:59;5.90;;;4.03;;
21507;SDS011;10915;54.352;9.074;2023-05-10T15:06:30;5.80;;;4.60;;
21507;SDS011;10915;54.352;9.074;2023-05-10T15:08:57;6.13;;;4.97;;
21507;SDS011;10915;54.352;9.074;2023-05-10T15:11:22;7.30;;;4.40;;
21507;SDS011;10915;54.352;9.074;2023-05-10T15:13:48;5.03;;;4.53;;
21507;SDS011;10915;54.352;9.074;2023-05-10T15:16:13;5.57;;;4.63;;
21507;SDS011;10915;54.352;9.074;2023-05-10T15:18:39;5.83;;;4.87;;
21507;SDS011;10915;54.352;9.074;2023-05-10T15:21:04;4.20;;;3.80;;
21507;SDS011;10915;54.352;9.074;2023-05-10T15:23:30;5.53;;;4.93;;
21507;SDS011;10915;54.352;9.074;2023-05-10T15:25:56;6.03;;;5.10;;
21507;SDS011;10915;54.352;9.074;2023-05-10T15:28:22;6.00;;;5.33;;
21507;SDS011;10915;54.352;9.074;2023-05-10T15:30:48;6.33;;;5.37;;